Thai Dawn — V7EO6 — position and weather

sailwx.info

Track history (hours):
 
Tides and Currents Weather Stations Pressure Air Temp Water Temp Dewpoint Dewpoint Depression Visibility Wind Speed Wind Dir Waves Ship Positions

Thai Dawn

Last reported at 2018-Apr-20 22:50 UTC. Time now 2018-Apr-22 01:25 UTC.
Position N 36°46' E 013°18'.

Length 169 m; draft 6.1 m.

Type: Cargo ship. MMSI: 538001841.

Date/timePositionNaut miles runAvg speedWind from/ knotsBaromVisibWave heightAir tempDewpointWater temp
2018-Apr-20 22:50N 36°46' E 013°18'413.5
2018-Apr-20 22:30N 36°45' E 013°24'713.6
2018-Apr-20 22:00N 36°42' E 013°32'713.2
2018-Apr-20 21:30N 36°41' E 013°40'612.9
2018-Apr-20 21:00N 36°39' E 013°48'612.8
2018-Apr-20 20:30N 36°37' E 013°55'713.1
2018-Apr-20 20:00N 36°35' E 014°03'713.2
2018-Apr-20 19:30N 36°32' E 014°10'713.1
2018-Apr-20 19:00N 36°30' E 014°18'612.9
2018-Apr-20 18:30N 36°29' E 014°26'713.4
2018-Apr-20 18:00N 36°26' E 014°34'611.4
2018-Apr-20 17:30N 36°25' E 014°41'712.7
2018-Apr-20 16:59N 36°25' E 014°49'612.3
2018-Apr-20 16:29N 36°25' E 014°56'  
Track history (hours):
 
Tides and Currents Weather Stations Pressure Air Temp Water Temp Dewpoint Dewpoint Depression Visibility Wind Speed Wind Dir Waves Ship Positions

Thai Dawn

Last reported at 2018-Apr-20 22:50 UTC. Time now 2018-Apr-22 01:25 UTC.
Position N 36°46' E 013°18'.

Length 169 m; draft 6.1 m.

Type: Cargo ship. MMSI: 538001841.

Date/timePositionNaut miles runAvg speedWind from/ knotsBaromVisibWave heightAir tempDewpointWater temp
2018-Apr-20 22:50N 36°46' E 013°18'413.5
2018-Apr-20 22:30N 36°45' E 013°24'713.6
2018-Apr-20 22:00N 36°42' E 013°32'713.2
2018-Apr-20 21:30N 36°41' E 013°40'612.9
2018-Apr-20 21:00N 36°39' E 013°48'612.8
2018-Apr-20 20:30N 36°37' E 013°55'713.1
2018-Apr-20 20:00N 36°35' E 014°03'713.2
2018-Apr-20 19:30N 36°32' E 014°10'713.1
2018-Apr-20 19:00N 36°30' E 014°18'612.9
2018-Apr-20 18:30N 36°29' E 014°26'713.4
2018-Apr-20 18:00N 36°26' E 014°34'611.4
2018-Apr-20 17:30N 36°25' E 014°41'712.7
2018-Apr-20 16:59N 36°25' E 014°49'612.3
2018-Apr-20 16:29N 36°25' E 014°56'  

Dump ship's entire track history